Terminal Aerodrome Forecast
Issued by NWS

Home | Current Version | Previous Version | Text Only | Print | Product List | Glossary On
Versions: 1 2 3 4 5 6 7 8 9 10 11 12 13 14 15 16 17
406
FTUS43 KIND 140522
TAFLAF
TAF
KLAF 140522Z 1406/1506 00000KT P6SM FEW050 OVC200
     FM140900 10003KT P6SM SCT050 OVC080
     FM141400 11009KT 3SM -SN BR OVC020
     FM141700 12014KT 1/2SM SN FZFG OVC007
     FM142300 13010KT 4SM -SHSN BR OVC009
      AMD LTD TO CLD VIS AND WIND TIL 141400=

USA.gov is the U.S. government's official web portal to all federal, state and local government web resources and services.